»·PEaware :: SKW5954 KFUL-L35

SKW5954 :: KFUL-L35

FLIGHT INFORMATION

Flight Status: Arrived
Operator:
SkyWest Airlines
More flights by this operator :: More flights under this callsign
Pilot: Joshua M. (19482)
Aircraft: CANADAIR CL-600 CRJ-200
(CRJ2)
More flights by this aircraft type
Origin: KFUL Fullerton Mun
United States
Destination: L35 Big Bear City
United States
More flights between these airports :: More routes between these airports
Route: +SLI POM APLES V386 OKACO
File this flight plan on PilotEdge
Remarks:
Altitude:
(Current/Filed)
18,000ft
Speed:
(Current/Filed)
450kts
Departed: 06-Jul-19 09:11 PM
Arrived: 06-Jul-19 09:48 PM
Distance/Time
Traveled:
60nm/0:36
Distance/Time
To Go:
Arrived

Flight Plot

Page will automatically refresh every two minutes.

Flight plan parsing failed; only flown route is shown


Map Options




Map Legend


Flown Route
Filed Route
Departure Airport
Arrival Airport
Navaid (VOR, NDB)
Fix

Horizontal Profiles

Position Reports

Time Latitude Longitude Heading Altitude Ground
Speed
06-Jul-19 20:57 33.870488 -117.979330 359 94ft 0kts
06-Jul-19 20:58 33.870488 -117.979330 359 94ft 0kts
06-Jul-19 20:59 33.870488 -117.979330 359 94ft 0kts
06-Jul-19 21:00 33.870488 -117.979330 359 94ft 0kts
06-Jul-19 21:01 33.870488 -117.979330 359 94ft 0kts
06-Jul-19 21:02 33.870488 -117.979330 359 94ft 0kts
06-Jul-19 21:03 33.870488 -117.979330 359 94ft 0kts
06-Jul-19 21:04 33.870488 -117.979330 359 94ft 0kts
06-Jul-19 21:05 33.870488 -117.979330 359 94ft 0kts
06-Jul-19 21:06 33.871250 -117.979221 350 94ft 3kts
06-Jul-19 21:07 33.872122 -117.976792 68 97ft 12kts
06-Jul-19 21:08 33.872465 -117.975321 76 97ft 0kts
06-Jul-19 21:09 33.872473 -117.975281 76 97ft 0kts
06-Jul-19 21:10 33.872968 -117.974923 271 97ft 0kts
06-Jul-19 21:11 33.869581 -117.992769 256 570ft 164kts
06-Jul-19 21:12 33.829851 -118.002435 130 2014ft 214kts
06-Jul-19 21:12 33.795290 -117.953307 131 1994ft 243kts
06-Jul-19 21:14 33.744451 -117.881255 131 3461ft 249kts
06-Jul-19 21:15 33.699317 -117.817475 132 5168ft 257kts
06-Jul-19 21:15 33.649637 -117.812713 220 6408ft 259kts
06-Jul-19 21:17 33.630653 -117.912681 262 9484ft 275kts
06-Jul-19 21:18 33.621036 -118.010551 262 10857ft 325kts
06-Jul-19 21:18 33.612075 -118.101490 262 12912ft 334kts
06-Jul-19 21:19 33.614284 -118.209690 298 15704ft 351kts
06-Jul-19 21:20 33.687248 -118.250559 11 17086ft 374kts
06-Jul-19 21:21 33.745607 -118.191560 70 17961ft 386kts
06-Jul-19 21:22 33.787001 -118.081373 60 18172ft 417kts
06-Jul-19 21:23 33.883672 -117.976921 40 18199ft 431kts
06-Jul-19 21:24 33.961984 -117.890466 43 17946ft 432kts
06-Jul-19 21:25 34.062422 -117.800995 36 17952ft 435kts
06-Jul-19 21:26 34.155278 -117.683546 49 17949ft 437kts
06-Jul-19 21:27 34.245304 -117.562019 49 17947ft 439kts
06-Jul-19 21:28 34.324411 -117.454844 49 17948ft 434kts
06-Jul-19 21:29 34.403131 -117.347865 49 17949ft 430kts
06-Jul-19 21:30 34.482624 -117.239501 49 17949ft 428kts
06-Jul-19 21:31 34.540423 -117.130873 82 17944ft 419kts
06-Jul-19 21:32 34.533303 -116.991352 98 17952ft 423kts
06-Jul-19 21:33 34.519423 -116.846261 98 18015ft 436kts
06-Jul-19 21:34 34.492223 -116.705565 129 17948ft 423kts
06-Jul-19 21:35 34.397878 -116.637044 162 17949ft 405kts
06-Jul-19 21:36 34.308054 -116.582053 129 16952ft 403kts
06-Jul-19 21:37 34.266738 -116.465891 94 13804ft 390kts
06-Jul-19 21:38 34.229448 -116.365195 157 12113ft 307kts
06-Jul-19 21:39 34.174514 -116.399371 267 12119ft 232kts
06-Jul-19 21:40 34.200156 -116.463726 297 12139ft 234kts
06-Jul-19 21:41 34.234510 -116.537855 297 12134ft 283kts
06-Jul-19 21:42 34.260743 -116.619848 275 12118ft 282kts
06-Jul-19 21:43 34.263920 -116.705187 268 11421ft 220kts
06-Jul-19 21:44 34.264072 -116.757588 267 10212ft 162kts
06-Jul-19 21:45 34.264002 -116.805332 267 8233ft 151kts
06-Jul-19 21:46 34.263860 -116.855200 267 6757ft 98kts
06-Jul-19 21:47 34.263755 -116.864686 269 6756ft 22kts

Navigation Log

Ident Type
Flight plan parsing failed, navigation log unavailable